createdAt,value
2022-10-20T00:01:24.306Z,3.55
2022-10-20T00:03:52.680Z,3.53
2022-10-20T00:06:21.202Z,3.49
2022-10-20T00:08:48.786Z,3.48
2022-10-20T00:11:18.661Z,3.48
2022-10-20T00:13:47.420Z,3.50
2022-10-20T00:16:14.561Z,3.50
2022-10-20T00:18:42.172Z,3.53
2022-10-20T00:21:21.442Z,3.50
2022-10-20T00:23:48.999Z,3.51
2022-10-20T00:26:24.530Z,3.43
2022-10-20T00:28:52.273Z,3.39
2022-10-20T00:31:21.480Z,3.38
2022-10-20T00:33:48.784Z,3.32
2022-10-20T00:36:17.979Z,3.32
2022-10-20T00:38:45.249Z,3.30
2022-10-20T00:41:14.651Z,3.33
2022-10-20T00:43:55.618Z,3.35
2022-10-20T00:46:32.542Z,3.37
2022-10-20T00:49:06.479Z,3.42
2022-10-20T00:51:33.976Z,3.48
2022-10-20T00:54:08.939Z,3.51
2022-10-20T00:56:38.775Z,3.54
2022-10-20T00:59:06.453Z,3.59
2022-10-20T01:01:33.604Z,3.55
2022-10-20T01:04:01.335Z,3.52
2022-10-20T01:06:28.257Z,3.48
2022-10-20T01:08:55.475Z,3.45
2022-10-20T01:11:45.947Z,3.37
2022-10-20T01:14:52.322Z,3.29
2022-10-20T01:18:01.562Z,3.21
2022-10-20T01:20:28.834Z,3.18
2022-10-20T01:23:09.819Z,3.15
2022-10-20T01:25:56.991Z,3.07
2022-10-20T01:28:40.168Z,3.03
2022-10-20T01:31:38.487Z,2.97
2022-10-20T01:34:24.049Z,2.93
2022-10-20T01:36:59.284Z,2.86
2022-10-20T01:39:34.801Z,2.79
2022-10-20T01:42:07.637Z,2.80
2022-10-20T01:44:36.857Z,2.73
2022-10-20T01:47:08.387Z,2.69
2022-10-20T01:49:35.425Z,2.67
2022-10-20T01:52:02.647Z,2.62
2022-10-20T01:54:30.785Z,2.59
2022-10-20T01:57:03.606Z,2.52
2022-10-20T01:59:41.334Z,2.50
2022-10-20T02:02:11.404Z,2.46
2022-10-20T02:05:02.976Z,2.38
2022-10-20T02:07:32.968Z,2.34
2022-10-20T02:10:13.022Z,2.34
2022-10-20T02:12:44.118Z,2.31
2022-10-20T02:15:14.957Z,2.26
2022-10-20T02:17:44.715Z,2.26
2022-10-20T02:20:11.767Z,2.26
2022-10-20T02:22:40.451Z,2.29
2022-10-20T02:25:11.606Z,2.29
2022-10-20T02:27:42.508Z,2.31
2022-10-20T02:30:13.659Z,2.33
2022-10-20T02:32:42.822Z,2.32
2022-10-20T02:35:23.156Z,2.31
2022-10-20T02:37:50.635Z,2.31
2022-10-20T02:43:06.094Z,2.32
2022-10-20T02:45:33.054Z,2.32
2022-10-20T02:47:59.788Z,2.37
2022-10-20T02:50:26.790Z,2.40
2022-10-20T02:52:53.642Z,2.43
2022-10-20T02:55:20.662Z,2.47
2022-10-20T02:57:47.454Z,2.55
2022-10-20T03:00:14.631Z,2.60
2022-10-20T03:02:41.369Z,2.65
2022-10-20T03:05:08.697Z,2.72
2022-10-20T03:07:35.752Z,2.78
2022-10-20T03:10:03.739Z,2.84
2022-10-20T03:12:32.227Z,2.90
2022-10-20T03:14:59.429Z,2.96
2022-10-20T03:17:26.162Z,3.03
2022-10-20T03:19:53.128Z,3.10
2022-10-20T03:22:19.942Z,3.17
2022-10-20T03:24:46.901Z,3.22
2022-10-20T03:27:14.320Z,3.29
2022-10-20T03:29:41.346Z,3.34
2022-10-20T03:32:08.141Z,3.39
2022-10-20T03:34:35.152Z,3.41
2022-10-20T03:37:02.427Z,3.47
2022-10-20T03:39:29.406Z,3.49
2022-10-20T03:41:57.874Z,3.53
2022-10-20T03:44:24.968Z,3.56
2022-10-20T03:46:51.743Z,3.59
2022-10-20T03:49:18.786Z,3.60
2022-10-20T03:51:45.555Z,3.62
2022-10-20T03:54:12.530Z,3.63
2022-10-20T03:56:39.326Z,3.65
2022-10-20T03:59:06.291Z,3.68
2022-10-20T04:01:34.938Z,3.71
2022-10-20T04:04:02.224Z,3.74
2022-10-20T04:06:29.153Z,3.72
2022-10-20T04:08:56.228Z,3.72
2022-10-20T04:11:24.142Z,3.72
2022-10-20T04:13:51.725Z,3.73
2022-10-20T04:16:18.622Z,3.74
2022-10-20T04:18:45.590Z,3.74
2022-10-20T04:21:12.424Z,3.74
2022-10-20T04:23:39.367Z,3.76
2022-10-20T04:26:10.984Z,3.75
2022-10-20T04:28:38.353Z,3.73
2022-10-20T04:31:06.133Z,3.74
2022-10-20T04:33:33.334Z,3.73
2022-10-20T04:36:08.074Z,3.69
2022-10-20T04:38:35.533Z,3.66
2022-10-20T04:41:04.635Z,3.67
2022-10-20T04:43:32.655Z,3.60
2022-10-20T04:46:07.249Z,3.60
2022-10-20T04:48:37.222Z,3.61
2022-10-20T04:51:09.396Z,3.61
2022-10-20T04:53:36.943Z,3.60
2022-10-20T04:56:05.726Z,3.60
2022-10-20T04:58:33.603Z,3.61
2022-10-20T05:01:05.435Z,3.60
2022-10-20T05:03:33.065Z,3.58
2022-10-20T05:06:24.658Z,3.59
2022-10-20T05:08:54.167Z,3.61
2022-10-20T05:11:23.151Z,3.62
2022-10-20T05:13:50.167Z,3.62
2022-10-20T05:16:20.037Z,3.60
2022-10-20T05:18:48.515Z,3.59
2022-10-20T05:21:23.346Z,3.61
2022-10-20T05:23:55.790Z,3.62
2022-10-20T05:26:22.600Z,3.65
2022-10-20T05:28:51.385Z,3.65
2022-10-20T05:31:21.224Z,3.68
2022-10-20T05:33:50.958Z,3.69
2022-10-20T05:36:21.587Z,3.71
2022-10-20T05:38:50.911Z,3.73
2022-10-20T05:41:20.459Z,3.77
2022-10-20T05:43:52.620Z,3.84
2022-10-20T05:46:20.422Z,3.87
2022-10-20T05:48:47.860Z,3.93
2022-10-20T05:51:17.856Z,3.96
2022-10-20T05:53:45.391Z,3.99
2022-10-20T05:56:15.429Z,4.01
2022-10-20T05:58:43.668Z,3.99
2022-10-20T06:01:21.221Z,4.01
2022-10-20T06:03:50.070Z,4.02
2022-10-20T06:06:17.723Z,4.02
2022-10-20T06:08:44.877Z,4.03
2022-10-20T06:11:14.227Z,4.06
2022-10-20T06:13:41.157Z,4.05
2022-10-20T06:16:13.803Z,4.07
2022-10-20T06:18:43.851Z,4.12
2022-10-20T06:21:13.878Z,4.14
2022-10-20T06:23:40.966Z,4.18
2022-10-20T06:26:13.601Z,4.21
2022-10-20T06:28:41.418Z,4.23
2022-10-20T06:31:21.604Z,4.26
2022-10-20T06:33:49.292Z,4.32
2022-10-20T06:36:17.224Z,4.36
2022-10-20T06:38:44.939Z,4.38
2022-10-20T06:41:15.242Z,4.45
2022-10-20T06:43:43.537Z,4.57
2022-10-20T06:46:16.662Z,4.75
2022-10-20T06:48:44.496Z,4.92
2022-10-20T06:51:16.519Z,4.98
2022-10-20T06:53:46.589Z,5.07
2022-10-20T06:56:16.526Z,5.15
2022-10-20T06:58:45.304Z,5.24
2022-10-20T07:01:14.967Z,5.22
2022-10-20T07:03:43.372Z,5.17
2022-10-20T07:06:14.434Z,5.16
2022-10-20T07:08:42.021Z,5.17
2022-10-20T07:11:18.397Z,5.19
2022-10-20T07:13:46.375Z,5.17
2022-10-20T07:16:15.461Z,5.17
2022-10-20T07:18:45.447Z,5.13
2022-10-20T07:21:17.638Z,5.18
2022-10-20T07:23:45.628Z,5.20
2022-10-20T07:26:19.560Z,5.23
2022-10-20T07:28:54.672Z,5.30
2022-10-20T07:31:23.940Z,5.33
2022-10-20T07:34:13.400Z,5.34
2022-10-20T07:36:40.203Z,5.40
2022-10-20T07:39:07.096Z,5.44
2022-10-20T07:41:34.805Z,5.54
2022-10-20T07:44:01.971Z,5.63
2022-10-20T07:46:28.754Z,5.71
2022-10-20T07:49:02.761Z,5.79
2022-10-20T07:51:38.450Z,5.84
2022-10-20T07:54:07.668Z,5.96
2022-10-20T07:56:40.070Z,6.06
2022-10-20T07:59:08.568Z,6.15
2022-10-20T08:01:36.147Z,6.20
2022-10-20T08:04:03.991Z,6.23
2022-10-20T08:06:30.863Z,6.25
2022-10-20T08:08:57.973Z,6.37
2022-10-20T08:11:24.813Z,6.49
2022-10-20T08:13:52.515Z,6.61
2022-10-20T08:21:47.462Z,7.24
2022-10-20T08:24:14.475Z,7.42
2022-10-20T08:26:41.388Z,7.55
2022-10-20T08:29:09.334Z,7.63
2022-10-20T08:31:36.223Z,7.77
2022-10-20T08:34:03.305Z,8.27
2022-10-20T08:36:30.220Z,9.39
2022-10-20T08:39:03.607Z,10.23
2022-10-20T08:42:02.738Z,10.80
2022-10-20T08:44:31.916Z,11.54
2022-10-20T08:47:01.312Z,12.07
2022-10-20T08:49:32.281Z,12.19
2022-10-20T08:51:59.333Z,12.19
2022-10-20T08:54:26.420Z,12.07
2022-10-20T08:56:53.631Z,11.89
2022-10-20T08:59:35.192Z,11.82
2022-10-20T09:02:03.883Z,12.78
2022-10-20T09:07:30.037Z,15.80
2022-10-20T09:10:07.675Z,17.04
2022-10-20T09:12:34.887Z,17.73
2022-10-20T09:15:02.127Z,17.72
2022-10-20T09:17:29.167Z,17.48
2022-10-20T09:19:59.303Z,17.82
2022-10-20T09:22:32.141Z,18.64
2022-10-20T09:25:03.522Z,19.64
2022-10-20T09:27:39.885Z,20.11
2022-10-20T09:30:30.071Z,20.17
2022-10-20T09:32:56.939Z,20.03
2022-10-20T09:35:28.719Z,19.29
2022-10-20T09:38:03.243Z,18.32
2022-10-20T09:40:31.021Z,18.59
2022-10-20T09:43:15.394Z,19.36
2022-10-20T09:46:06.745Z,19.56
2022-10-20T09:48:38.240Z,19.96
2022-10-20T09:54:04.931Z,21.74
2022-10-20T09:56:35.217Z,22.40
2022-10-20T09:59:05.950Z,22.39
2022-10-20T10:01:33.128Z,22.54
2022-10-20T10:04:02.155Z,22.80
2022-10-20T10:06:32.347Z,22.57
2022-10-20T10:09:02.090Z,22.47
2022-10-20T10:11:34.339Z,22.03
2022-10-20T10:14:02.365Z,21.07
2022-10-20T10:16:40.918Z,19.79
2022-10-20T10:19:08.177Z,20.01
2022-10-20T10:21:53.524Z,20.33
2022-10-20T10:24:42.321Z,21.14
2022-10-20T10:27:19.475Z,21.82
2022-10-20T10:29:46.713Z,22.93
2022-10-20T10:32:19.289Z,22.99
2022-10-20T10:35:16.957Z,22.64
2022-10-20T10:37:45.024Z,22.94
2022-10-20T10:40:27.010Z,23.50
2022-10-20T10:42:59.925Z,24.07
2022-10-20T10:45:29.591Z,23.96
2022-10-20T10:48:22.108Z,22.97
2022-10-20T10:51:00.947Z,22.18
2022-10-20T10:53:45.486Z,22.10
2022-10-20T10:56:39.700Z,22.69
2022-10-20T10:59:35.016Z,22.94
2022-10-20T11:02:25.623Z,21.91
2022-10-20T11:05:11.329Z,21.91
2022-10-20T11:07:51.240Z,21.85
2022-10-20T11:10:33.277Z,21.68
2022-10-20T11:13:03.789Z,21.92
2022-10-20T11:15:41.860Z,22.55
2022-10-20T11:18:17.466Z,23.07
2022-10-20T11:20:47.060Z,23.56
2022-10-20T11:23:51.392Z,23.79
2022-10-20T11:26:39.091Z,23.91
2022-10-20T11:29:12.615Z,23.72
2022-10-20T11:31:48.421Z,23.21
2022-10-20T11:34:15.158Z,22.34
2022-10-20T11:36:47.859Z,21.49
2022-10-20T11:39:24.162Z,21.05
2022-10-20T11:41:58.536Z,21.06
2022-10-20T11:44:38.163Z,21.38
2022-10-20T11:47:12.683Z,21.82
2022-10-20T11:49:40.815Z,22.11
2022-10-20T11:52:26.340Z,22.17
2022-10-20T11:55:27.355Z,22.34
2022-10-20T11:58:18.434Z,22.75
2022-10-20T12:00:57.629Z,23.13
2022-10-20T12:03:45.738Z,23.56
2022-10-20T12:06:41.698Z,23.63
2022-10-20T12:12:02.419Z,24.02
2022-10-20T12:14:46.455Z,24.12
2022-10-20T12:17:30.198Z,24.11
2022-10-20T12:20:21.804Z,24.04
2022-10-20T12:22:50.472Z,24.36
2022-10-20T12:25:25.322Z,24.18
2022-10-20T12:28:20.756Z,24.11
2022-10-20T12:31:07.198Z,24.24
2022-10-20T12:33:59.248Z,23.98
2022-10-20T12:36:36.550Z,23.77
2022-10-20T12:39:12.351Z,23.43
2022-10-20T12:41:55.436Z,23.40
2022-10-20T12:44:23.606Z,23.24
2022-10-20T12:46:58.125Z,23.07
2022-10-20T12:49:31.254Z,23.33
2022-10-20T12:52:00.294Z,23.24
2022-10-20T12:54:40.548Z,23.17
2022-10-20T12:57:41.787Z,23.14
2022-10-20T13:00:32.938Z,23.44
2022-10-20T13:03:00.367Z,23.76
2022-10-20T13:05:43.529Z,23.65
2022-10-20T13:08:19.817Z,22.83
2022-10-20T13:10:47.726Z,22.25
2022-10-20T13:13:20.558Z,22.15
2022-10-20T13:15:53.606Z,22.27
2022-10-20T13:18:31.708Z,22.14
2022-10-20T13:21:20.857Z,22.04
2022-10-20T13:23:53.682Z,21.72
2022-10-20T13:26:43.335Z,21.65
2022-10-20T13:29:20.284Z,21.09
2022-10-20T13:32:00.128Z,20.31
2022-10-20T13:34:41.509Z,19.96
2022-10-20T13:37:19.123Z,19.82
2022-10-20T13:39:52.179Z,19.55
2022-10-20T13:42:40.011Z,19.42
2022-10-20T13:45:07.219Z,19.38
2022-10-20T13:47:42.630Z,19.18
2022-10-20T13:52:54.829Z,18.47
2022-10-20T13:55:28.887Z,18.24
2022-10-20T13:58:08.839Z,17.96
2022-10-20T14:00:36.308Z,17.69
2022-10-20T14:03:15.552Z,17.32
2022-10-20T14:05:42.556Z,16.66
2022-10-20T14:08:17.831Z,15.96
2022-10-20T14:11:08.523Z,15.15
2022-10-20T14:13:36.417Z,14.44
2022-10-20T14:16:16.556Z,13.92
2022-10-20T14:18:43.423Z,13.48
2022-10-20T14:21:18.704Z,12.99
2022-10-20T14:23:49.260Z,12.58
2022-10-20T14:26:20.304Z,12.16
2022-10-20T14:28:50.528Z,11.82
2022-10-20T14:31:22.027Z,11.47
2022-10-20T14:33:51.611Z,11.20
2022-10-20T14:36:22.065Z,10.95
2022-10-20T14:38:54.946Z,10.73
2022-10-20T14:41:31.753Z,10.52
2022-10-20T14:44:05.915Z,10.31
2022-10-20T14:46:39.178Z,10.08
2022-10-20T14:49:25.296Z,9.85
2022-10-20T14:52:00.001Z,9.60
2022-10-20T14:54:39.174Z,9.40
2022-10-20T14:57:09.292Z,9.21
2022-10-20T14:59:49.679Z,9.05
2022-10-20T15:02:21.272Z,8.87
2022-10-20T15:04:52.015Z,8.71
2022-10-20T15:07:32.191Z,8.55
2022-10-20T15:10:08.262Z,8.37
2022-10-20T15:12:38.252Z,8.22
2022-10-20T15:15:05.406Z,7.97
2022-10-20T15:17:39.922Z,7.71
2022-10-20T15:20:40.074Z,7.48
2022-10-20T15:23:20.177Z,7.24
2022-10-20T15:25:50.060Z,7.00
2022-10-20T15:28:34.946Z,6.65
2022-10-20T15:31:04.321Z,6.38
2022-10-20T15:33:32.103Z,6.20
2022-10-20T15:36:00.675Z,6.03
2022-10-20T15:38:27.778Z,5.84
2022-10-20T15:40:54.622Z,5.64
2022-10-20T15:43:21.748Z,5.47
2022-10-20T15:45:55.082Z,5.20
2022-10-20T15:48:26.024Z,4.99
2022-10-20T15:50:59.051Z,4.75
2022-10-20T15:53:26.121Z,4.57
2022-10-20T15:55:52.969Z,4.36
2022-10-20T15:58:20.109Z,4.15
2022-10-20T16:00:46.926Z,3.98
2022-10-20T16:03:18.498Z,3.84
2022-10-20T16:05:46.797Z,3.73
2022-10-20T16:10:43.722Z,3.58
2022-10-20T16:13:11.414Z,3.39
2022-10-20T16:15:38.152Z,3.24
2022-10-20T16:18:07.352Z,3.13
2022-10-20T16:20:36.578Z,3.02
2022-10-20T16:23:03.675Z,2.89
2022-10-20T16:25:30.492Z,2.74
2022-10-20T16:27:57.501Z,2.61
2022-10-20T16:30:24.316Z,2.55
2022-10-20T16:32:51.288Z,2.42
2022-10-20T16:35:18.065Z,2.35
2022-10-20T16:37:45.018Z,2.29
2022-10-20T16:40:12.229Z,2.20
2022-10-20T16:42:39.420Z,2.13
2022-10-20T16:45:06.591Z,2.05
2022-10-20T16:47:33.759Z,2.00
2022-10-20T16:50:00.712Z,1.94
2022-10-20T16:52:27.754Z,1.90
2022-10-20T16:54:54.504Z,1.81
2022-10-20T16:57:21.648Z,1.76
2022-10-20T16:59:51.023Z,1.70
2022-10-20T17:02:19.611Z,1.66
2022-10-20T17:04:50.090Z,1.62
2022-10-20T17:07:17.782Z,1.53
2022-10-20T17:09:45.703Z,1.47
2022-10-20T17:12:12.689Z,1.41
2022-10-20T17:14:40.813Z,1.37
2022-10-20T17:17:07.932Z,1.32
2022-10-20T17:19:34.965Z,1.25
2022-10-20T17:22:02.019Z,1.21
2022-10-20T17:24:29.105Z,1.16
2022-10-20T17:26:56.090Z,1.12
2022-10-20T17:29:25.990Z,1.10
2022-10-20T17:31:53.236Z,1.04
2022-10-20T17:34:20.271Z,1.01
2022-10-20T17:36:47.212Z,0.97
2022-10-20T17:39:16.509Z,0.91
2022-10-20T17:41:43.699Z,0.82
2022-10-20T17:44:10.526Z,0.74
2022-10-20T17:46:38.677Z,0.68
2022-10-20T17:49:06.033Z,0.63
2022-10-20T17:51:34.758Z,0.58
2022-10-20T17:54:02.671Z,0.57
2022-10-20T17:56:37.316Z,0.53
2022-10-20T17:59:06.573Z,0.49
2022-10-20T18:01:37.007Z,0.45
2022-10-20T18:04:06.816Z,0.45
2022-10-20T18:06:35.319Z,0.46
2022-10-20T18:09:06.460Z,0.45
2022-10-20T18:11:35.522Z,0.43
2022-10-20T18:14:03.118Z,0.41
2022-10-20T18:16:32.452Z,0.34
2022-10-20T18:18:59.783Z,0.27
2022-10-20T18:21:28.599Z,0.22
2022-10-20T18:24:02.401Z,0.17
2022-10-20T18:26:30.903Z,0.12
2022-10-20T18:28:59.549Z,0.11
2022-10-20T18:31:30.255Z,0.10
2022-10-20T18:34:04.203Z,0.10
2022-10-20T18:36:36.235Z,0.11
2022-10-20T18:39:06.069Z,0.05
2022-10-20T18:41:38.325Z,0.04
2022-10-20T18:44:10.265Z,0.03
2022-10-20T18:46:37.890Z,-0.01
2022-10-20T18:49:07.278Z,-0.03
2022-10-20T18:51:36.214Z,-0.07
2022-10-20T18:54:04.977Z,-0.10
2022-10-20T18:56:32.080Z,-0.17
2022-10-20T18:59:01.373Z,-0.16
2022-10-20T19:01:31.338Z,-0.16
2022-10-20T19:03:59.081Z,-0.18
2022-10-20T19:06:29.407Z,-0.19
2022-10-20T19:08:59.126Z,-0.23
2022-10-20T19:11:28.378Z,-0.22
2022-10-20T19:13:56.449Z,-0.25
2022-10-20T19:16:26.698Z,-0.25
2022-10-20T19:18:55.861Z,-0.28
2022-10-20T19:21:24.211Z,-0.29
2022-10-20T19:23:53.979Z,-0.32
2022-10-20T19:26:23.799Z,-0.33
2022-10-20T19:28:58.680Z,-0.35
2022-10-20T19:31:28.807Z,-0.36
2022-10-20T19:34:14.401Z,-0.33
2022-10-20T19:36:42.693Z,-0.31
2022-10-20T19:39:11.324Z,-0.25
2022-10-20T19:41:38.378Z,-0.22
2022-10-20T19:44:05.739Z,-0.18
2022-10-20T19:46:32.972Z,-0.17
2022-10-20T19:48:59.758Z,-0.16
2022-10-20T19:51:26.766Z,-0.18
2022-10-20T19:53:53.544Z,-0.22
2022-10-20T19:56:20.586Z,-0.24
2022-10-20T19:58:48.535Z,-0.32
2022-10-20T20:01:16.620Z,-0.42
2022-10-20T20:03:44.393Z,-0.50
2022-10-20T20:06:17.952Z,-0.57
2022-10-20T20:08:47.707Z,-0.61
2022-10-20T20:11:27.480Z,-0.64
2022-10-20T20:13:57.460Z,-0.65
2022-10-20T20:16:25.177Z,-0.72
2022-10-20T20:18:52.091Z,-0.73
2022-10-20T20:21:19.124Z,-0.78
2022-10-20T20:24:01.621Z,-0.86
2022-10-20T20:26:30.894Z,-0.93
2022-10-20T20:28:58.641Z,-0.96
2022-10-20T20:31:28.061Z,-0.95
2022-10-20T20:33:56.887Z,-0.98
2022-10-20T20:36:26.244Z,-0.94
2022-10-20T20:38:56.671Z,-0.88
2022-10-20T20:41:26.782Z,-0.86
2022-10-20T20:43:54.470Z,-0.85
2022-10-20T20:46:23.853Z,-0.82
2022-10-20T20:48:50.735Z,-0.84
2022-10-20T20:51:17.962Z,-0.89
2022-10-20T20:53:44.753Z,-0.90
2022-10-20T20:56:14.351Z,-0.91
2022-10-20T20:58:54.751Z,-0.93
2022-10-20T21:01:27.787Z,-0.96
2022-10-20T21:04:01.700Z,-0.94
2022-10-20T21:06:38.062Z,-0.93
2022-10-20T21:09:16.425Z,-0.97
2022-10-20T21:11:43.417Z,-1.00
2022-10-20T21:14:10.273Z,-1.01
2022-10-20T21:16:38.177Z,-1.03
2022-10-20T21:19:08.646Z,-1.12
2022-10-20T21:21:47.139Z,-1.19
2022-10-20T21:24:13.985Z,-1.20
2022-10-20T21:26:41.145Z,-1.20
2022-10-20T21:29:07.941Z,-1.20
2022-10-20T21:31:35.338Z,-1.23
2022-10-20T21:34:04.639Z,-1.21
2022-10-20T21:36:34.801Z,-1.18
2022-10-20T21:39:04.298Z,-1.18
2022-10-20T21:41:33.409Z,-1.17
2022-10-20T21:44:01.643Z,-1.21
2022-10-20T21:46:31.530Z,-1.23
2022-10-20T21:49:20.032Z,-1.22
2022-10-20T21:51:50.060Z,-1.25
2022-10-20T21:56:52.322Z,-1.28
2022-10-20T21:59:30.240Z,-1.26
2022-10-20T22:01:59.749Z,-1.30
2022-10-20T22:04:29.141Z,-1.30
2022-10-20T22:06:56.905Z,-1.30
2022-10-20T22:09:24.054Z,-1.30
2022-10-20T22:11:55.412Z,-1.31
2022-10-20T22:14:22.805Z,-1.36
2022-10-20T22:16:49.803Z,-1.41
2022-10-20T22:19:20.109Z,-1.45
2022-10-20T22:21:49.353Z,-1.49
2022-10-20T22:24:18.631Z,-1.51
2022-10-20T22:26:46.100Z,-1.52
2022-10-20T22:29:13.303Z,-1.56
2022-10-20T22:31:41.170Z,-1.59
2022-10-20T22:34:09.141Z,-1.62
2022-10-20T22:36:36.301Z,-1.69
2022-10-20T22:39:03.840Z,-1.73
2022-10-20T22:41:30.882Z,-1.77
2022-10-20T22:43:58.138Z,-1.81
2022-10-20T22:46:25.204Z,-1.85
2022-10-20T22:48:52.055Z,-1.89
2022-10-20T22:51:19.296Z,-1.93
2022-10-20T22:53:46.099Z,-2.00
2022-10-20T22:56:17.577Z,-2.06
2022-10-20T22:58:44.818Z,-2.08
2022-10-20T23:01:15.289Z,-2.07
2022-10-20T23:03:42.702Z,-2.08
2022-10-20T23:06:15.370Z,-2.05
2022-10-20T23:08:44.937Z,-2.06
2022-10-20T23:11:13.088Z,-2.04
2022-10-20T23:13:39.913Z,-2.01
2022-10-20T23:16:07.339Z,-2.03
2022-10-20T23:18:34.373Z,-2.05
2022-10-20T23:21:01.577Z,-2.07
2022-10-20T23:23:28.396Z,-2.06
2022-10-20T23:25:56.844Z,-2.02
2022-10-20T23:28:25.348Z,-2.02
2022-10-20T23:30:52.306Z,-2.05
2022-10-20T23:33:19.137Z,-2.09
2022-10-20T23:35:47.245Z,-2.06
2022-10-20T23:38:14.045Z,-2.05
2022-10-20T23:40:41.034Z,-2.06
2022-10-20T23:43:08.088Z,-2.11
2022-10-20T23:45:37.000Z,-2.15
2022-10-20T23:48:04.845Z,-2.15
2022-10-20T23:50:31.838Z,-2.18
2022-10-20T23:52:58.622Z,-2.22
2022-10-20T23:55:25.587Z,-2.22
2022-10-20T23:57:52.367Z,-2.26
